createdAt,value
2023-02-08T00:00:11.057Z,-2.10
2023-02-08T00:02:37.777Z,-1.80
2023-02-08T00:05:04.832Z,-1.70
2023-02-08T00:09:59.058Z,-1.70
2023-02-08T00:14:54.159Z,-0.90
2023-02-08T00:17:20.812Z,-1.70
2023-02-08T00:22:14.516Z,-1.70
2023-02-08T00:27:08.804Z,-1.80
2023-02-08T00:29:35.747Z,-1.70
2023-02-08T00:32:02.482Z,-1.00
2023-02-08T00:34:29.295Z,-2.50
2023-02-08T00:39:23.860Z,-1.70
2023-02-08T00:44:18.166Z,-1.60
2023-02-08T00:49:11.753Z,-2.00
2023-02-08T00:54:05.334Z,-1.60
2023-02-08T00:56:32.026Z,-1.80
2023-02-08T01:01:26.360Z,-1.70
2023-02-08T01:03:53.067Z,-1.90
2023-02-08T01:08:46.745Z,-1.80
2023-02-08T01:11:15.514Z,-1.80
2023-02-08T01:13:42.148Z,-2.50
2023-02-08T01:16:11.403Z,-3.80
2023-02-08T01:18:39.491Z,-2.00
2023-02-08T01:21:08.354Z,-1.90
2023-02-08T01:23:35.662Z,-2.20
2023-02-08T01:26:02.372Z,-2.00
2023-02-08T01:33:23.309Z,-2.70
2023-02-08T01:35:51.949Z,-2.40
2023-02-08T01:43:20.158Z,-2.20
2023-02-08T01:45:46.827Z,-2.10
2023-02-08T01:48:17.785Z,-2.20
2023-02-08T01:50:51.443Z,-2.30
2023-02-08T01:53:19.301Z,-2.20
2023-02-08T01:55:50.645Z,-2.30
2023-02-08T02:03:11.762Z,-2.40
2023-02-08T02:05:41.124Z,0.80
2023-02-08T02:10:37.750Z,-2.20
2023-02-08T02:13:07.525Z,-2.30
2023-02-08T02:15:34.304Z,-2.20
2023-02-08T02:18:01.482Z,-2.20
2023-02-08T02:20:39.971Z,-2.10
2023-02-08T02:23:54.927Z,-2.60
2023-02-08T02:26:50.126Z,-2.40
2023-02-08T02:29:46.738Z,-2.50
2023-02-08T02:32:27.493Z,-2.50
2023-02-08T02:35:02.495Z,-2.50
2023-02-08T02:37:40.597Z,-2.80
2023-02-08T02:40:15.722Z,-0.50
2023-02-08T02:43:10.145Z,-2.40
2023-02-08T02:45:44.621Z,-2.50
2023-02-08T02:48:16.892Z,-2.40
2023-02-08T02:50:47.956Z,-2.50
2023-02-08T02:53:22.399Z,-2.60
2023-02-08T02:55:52.966Z,-2.60
2023-02-08T02:58:21.835Z,-2.50
2023-02-08T03:00:53.394Z,-2.70
2023-02-08T03:03:23.806Z,-0.80
2023-02-08T03:05:51.650Z,-2.70
2023-02-08T03:08:35.776Z,-2.70
2023-02-08T03:11:15.595Z,-2.70
2023-02-08T03:14:06.686Z,-2.90
2023-02-08T03:16:52.242Z,-2.70
2023-02-08T03:19:27.263Z,-2.80
2023-02-08T03:21:58.533Z,-2.50
2023-02-08T03:24:28.774Z,-2.80
2023-02-08T03:27:01.299Z,-2.80
2023-02-08T03:29:39.531Z,-2.90
2023-02-08T03:32:10.950Z,-2.90
2023-02-08T03:34:45.672Z,-2.80
2023-02-08T03:37:18.184Z,-2.90
2023-02-08T03:39:46.888Z,-2.90
2023-02-08T03:42:17.066Z,-2.80
2023-02-08T03:44:50.985Z,-2.60
2023-02-08T03:47:21.880Z,-2.90
2023-02-08T03:49:51.832Z,-5.30
2023-02-08T03:52:19.682Z,-2.80
2023-02-08T03:54:50.691Z,-1.70
2023-02-08T03:57:22.290Z,-2.60
2023-02-08T03:59:55.113Z,-2.70
2023-02-08T04:02:26.109Z,-2.90
2023-02-08T04:04:55.241Z,-2.90
2023-02-08T04:17:09.734Z,-2.90
2023-02-08T04:22:04.000Z,-3.00
2023-02-08T04:27:01.253Z,-3.00
2023-02-08T04:29:27.942Z,-3.00
2023-02-08T04:34:21.782Z,-3.20
2023-02-08T04:39:16.008Z,-2.90
2023-02-08T04:49:03.614Z,-2.60
2023-02-08T04:51:30.251Z,-3.00
2023-02-08T04:56:24.534Z,-3.20
2023-02-08T05:03:45.177Z,-3.00
2023-02-08T05:06:11.877Z,-3.00
2023-02-08T05:13:33.316Z,-3.30
2023-02-08T05:20:54.951Z,-3.20
2023-02-08T05:23:21.606Z,-3.50
2023-02-08T05:25:48.268Z,-3.60
2023-02-08T05:28:15.537Z,-3.60
2023-02-08T05:30:43.233Z,-3.40
2023-02-08T05:35:36.992Z,-3.30
2023-02-08T05:38:03.854Z,-3.20
2023-02-08T05:45:25.871Z,-3.30
2023-02-08T05:47:53.247Z,-3.30
2023-02-08T05:50:33.296Z,-3.50
2023-02-08T05:53:00.050Z,-3.30
2023-02-08T05:55:27.931Z,-3.30
2023-02-08T06:02:48.864Z,-5.30
2023-02-08T06:05:16.793Z,-3.40
2023-02-08T06:07:43.598Z,-4.40
2023-02-08T06:12:38.414Z,-3.10
2023-02-08T06:15:05.536Z,-3.40
2023-02-08T06:19:59.105Z,-3.00
2023-02-08T06:22:26.459Z,-3.30
2023-02-08T06:27:20.131Z,-3.10
2023-02-08T06:37:07.779Z,-3.10
2023-02-08T06:39:35.140Z,-3.30
2023-02-08T06:42:01.799Z,-3.40
2023-02-08T06:44:28.492Z,-3.10
2023-02-08T06:49:22.116Z,-3.30
2023-02-08T06:51:48.857Z,-3.60
2023-02-08T06:54:15.547Z,-3.30
2023-02-08T06:56:43.144Z,-3.30
2023-02-08T07:04:04.234Z,-3.90
2023-02-08T07:13:53.841Z,-3.10
2023-02-08T07:18:47.532Z,-3.00
2023-02-08T07:23:41.569Z,-3.50
2023-02-08T07:26:11.285Z,-2.90
2023-02-08T07:28:38.348Z,-2.90
2023-02-08T07:31:06.382Z,-3.30
2023-02-08T07:36:00.356Z,-2.90
2023-02-08T07:38:27.127Z,-2.50
2023-02-08T07:41:00.521Z,-2.70
2023-02-08T07:48:21.993Z,-2.60
2023-02-08T07:53:16.002Z,-1.70
2023-02-08T07:55:45.461Z,-2.50
2023-02-08T07:58:13.712Z,-2.20
2023-02-08T08:00:40.820Z,-1.60
2023-02-08T08:05:35.757Z,-2.00
2023-02-08T08:08:02.683Z,-2.00
2023-02-08T08:10:29.705Z,-2.30
2023-02-08T08:15:23.390Z,-1.70
2023-02-08T08:20:17.362Z,-1.60
2023-02-08T08:22:44.743Z,-1.60
2023-02-08T08:25:11.564Z,-1.60
2023-02-08T08:27:38.319Z,-1.50
2023-02-08T08:30:06.820Z,-1.10
2023-02-08T08:32:33.590Z,-0.80
2023-02-08T08:35:00.249Z,-0.90
2023-02-08T08:37:26.894Z,-0.20
2023-02-08T08:39:54.335Z,-1.00
2023-02-08T08:47:15.075Z,0.10
2023-02-08T08:52:10.082Z,-1.20
2023-02-08T08:54:37.601Z,-0.90
2023-02-08T08:57:05.371Z,-0.70
2023-02-08T08:59:32.374Z,-0.30
2023-02-08T09:01:59.220Z,-0.60
2023-02-08T09:04:26.277Z,-0.60
2023-02-08T09:06:53.783Z,0.00
2023-02-08T09:09:21.493Z,0.60
2023-02-08T09:11:48.510Z,0.10
2023-02-08T09:14:15.834Z,0.00
2023-02-08T09:16:46.750Z,-0.10
2023-02-08T09:19:14.050Z,0.00
2023-02-08T09:21:41.054Z,0.10
2023-02-08T09:24:07.850Z,0.20
2023-02-08T09:29:01.711Z,0.50
2023-02-08T09:31:30.965Z,0.30
2023-02-08T09:33:59.806Z,0.30
2023-02-08T09:36:28.875Z,0.60
2023-02-08T09:38:59.557Z,0.50
2023-02-08T09:41:59.685Z,2.40
2023-02-08T09:44:31.965Z,0.90
2023-02-08T09:47:06.130Z,0.80
2023-02-08T09:49:37.220Z,0.70
2023-02-08T09:52:10.682Z,1.10
2023-02-08T09:54:41.313Z,1.00
2023-02-08T09:57:14.703Z,1.10
2023-02-08T09:59:55.349Z,1.00
2023-02-08T10:02:26.956Z,0.70
2023-02-08T10:05:00.100Z,1.20
2023-02-08T10:07:27.734Z,1.30
2023-02-08T10:09:57.262Z,0.90
2023-02-08T10:12:35.592Z,1.10
2023-02-08T10:15:13.719Z,0.90
2023-02-08T10:18:27.644Z,1.50
2023-02-08T10:21:09.528Z,1.80
2023-02-08T10:23:56.363Z,1.50
2023-02-08T10:26:33.689Z,1.80
2023-02-08T10:29:19.816Z,1.70
2023-02-08T10:32:01.874Z,2.10
2023-02-08T10:34:41.557Z,1.70
2023-02-08T10:37:14.941Z,1.70
2023-02-08T10:39:42.550Z,1.80
2023-02-08T10:42:14.953Z,1.50
2023-02-08T10:44:54.441Z,1.60
2023-02-08T10:47:32.606Z,1.60
2023-02-08T10:50:03.345Z,1.70
2023-02-08T10:54:58.678Z,1.60
2023-02-08T10:57:28.996Z,1.50
2023-02-08T11:00:01.219Z,2.10
2023-02-08T11:02:31.687Z,1.70
2023-02-08T11:05:01.708Z,1.70
2023-02-08T11:07:29.052Z,1.60
2023-02-08T11:10:31.075Z,1.70
2023-02-08T11:13:00.186Z,2.00
2023-02-08T11:15:30.010Z,1.90
2023-02-08T11:17:59.463Z,1.80
2023-02-08T11:20:33.987Z,1.90
2023-02-08T11:25:37.980Z,1.60
2023-02-08T11:28:05.843Z,2.10
2023-02-08T11:30:33.075Z,2.20
2023-02-08T11:33:19.159Z,2.00
2023-02-08T11:35:55.865Z,2.30
2023-02-08T11:40:56.712Z,1.90
2023-02-08T11:43:26.301Z,2.10
2023-02-08T11:45:54.764Z,2.50
2023-02-08T11:48:29.733Z,2.20
2023-02-08T11:51:00.426Z,2.50
2023-02-08T11:53:31.511Z,1.70
2023-02-08T11:56:04.302Z,1.80
2023-02-08T11:58:31.674Z,2.50
2023-02-08T12:01:01.538Z,2.40
2023-02-08T12:03:32.867Z,2.40
2023-02-08T12:06:22.664Z,2.10
2023-02-08T12:09:00.004Z,2.60
2023-02-08T12:11:32.782Z,2.40
2023-02-08T12:14:15.825Z,2.60
2023-02-08T12:17:08.320Z,3.80
2023-02-08T12:20:06.638Z,3.00
2023-02-08T12:22:38.864Z,2.40
2023-02-08T12:25:21.853Z,2.50
2023-02-08T12:27:54.748Z,2.90
2023-02-08T12:30:29.653Z,2.10
2023-02-08T12:33:28.514Z,3.00
2023-02-08T12:36:08.125Z,3.10
2023-02-08T12:39:35.053Z,2.80
2023-02-08T12:42:26.778Z,3.10
2023-02-08T12:45:24.698Z,2.80
2023-02-08T12:48:04.639Z,3.00
2023-02-08T12:50:39.463Z,3.70
2023-02-08T12:53:20.763Z,3.40
2023-02-08T12:55:49.971Z,3.20
2023-02-08T12:58:28.669Z,3.40
2023-02-08T13:01:00.764Z,3.10
2023-02-08T13:03:37.627Z,3.70
2023-02-08T13:06:07.980Z,7.60
2023-02-08T13:08:44.711Z,12.50
2023-02-08T13:11:20.368Z,14.80
2023-02-08T13:13:55.572Z,15.60
2023-02-08T13:16:25.998Z,15.50
2023-02-08T13:18:55.237Z,16.10
2023-02-08T13:21:25.587Z,17.70
2023-02-08T13:23:53.400Z,15.70
2023-02-08T13:26:25.821Z,17.00
2023-02-08T13:28:54.009Z,17.20
2023-02-08T13:31:24.527Z,17.70
2023-02-08T13:34:01.598Z,16.80
2023-02-08T13:36:32.437Z,16.90
2023-02-08T13:39:01.257Z,15.20
2023-02-08T13:41:31.505Z,16.10
2023-02-08T13:44:00.999Z,16.10
2023-02-08T13:46:35.734Z,16.70
2023-02-08T13:49:02.418Z,16.90
2023-02-08T13:51:53.024Z,17.50
2023-02-08T13:54:19.918Z,17.20
2023-02-08T13:56:49.263Z,15.90
2023-02-08T13:59:33.002Z,14.30
2023-02-08T14:02:26.367Z,13.50
2023-02-08T14:05:19.249Z,12.30
2023-02-08T14:07:47.687Z,11.20
2023-02-08T14:10:25.011Z,12.80
2023-02-08T14:12:59.953Z,14.00
2023-02-08T14:15:32.257Z,15.10
2023-02-08T14:18:00.408Z,15.50
2023-02-08T14:20:32.345Z,14.40
2023-02-08T14:23:01.698Z,12.10
2023-02-08T14:25:37.373Z,10.00
2023-02-08T14:28:05.356Z,7.80
2023-02-08T14:30:34.572Z,5.90
2023-02-08T14:33:16.078Z,5.10
2023-02-08T14:35:51.462Z,3.70
2023-02-08T14:38:50.031Z,4.20
2023-02-08T14:41:45.059Z,3.70
2023-02-08T14:44:54.244Z,3.20
2023-02-08T14:48:03.810Z,3.40
2023-02-08T14:50:49.027Z,2.60
2023-02-08T14:53:23.441Z,2.60
2023-02-08T14:55:54.399Z,2.60
2023-02-08T14:58:30.963Z,2.60
2023-02-08T15:01:01.599Z,3.00
2023-02-08T15:03:31.769Z,2.50
2023-02-08T15:06:38.327Z,5.20
2023-02-08T15:09:12.236Z,2.60
2023-02-08T15:11:40.431Z,2.40
2023-02-08T15:14:16.560Z,1.70
2023-02-08T15:16:44.496Z,2.60
2023-02-08T15:19:21.757Z,1.80
2023-02-08T15:21:49.149Z,2.40
2023-02-08T15:24:18.028Z,2.30
2023-02-08T15:26:46.050Z,2.20
2023-02-08T15:29:23.204Z,2.20
2023-02-08T15:31:52.937Z,2.10
2023-02-08T15:34:22.067Z,2.00
2023-02-08T15:36:51.786Z,2.00
2023-02-08T15:39:31.485Z,2.00
2023-02-08T15:41:58.801Z,2.30
2023-02-08T15:44:29.381Z,2.00
2023-02-08T15:46:59.626Z,1.20
2023-02-08T15:49:31.503Z,1.60
2023-02-08T15:51:59.884Z,1.90
2023-02-08T15:54:26.930Z,1.70
2023-02-08T15:56:56.530Z,1.40
2023-02-08T15:59:26.480Z,1.50
2023-02-08T16:01:54.214Z,1.50
2023-02-08T16:04:21.527Z,1.60
2023-02-08T16:06:51.283Z,1.40
2023-02-08T16:09:24.516Z,1.40
2023-02-08T16:11:52.234Z,1.30
2023-02-08T16:14:26.117Z,1.20
2023-02-08T16:16:57.399Z,1.20
2023-02-08T16:19:26.895Z,1.10
2023-02-08T16:21:55.471Z,1.20
2023-02-08T16:24:26.725Z,0.80
2023-02-08T16:27:01.741Z,1.00
2023-02-08T16:29:31.352Z,0.90
2023-02-08T16:32:02.948Z,1.00
2023-02-08T16:34:32.460Z,0.70
2023-02-08T16:37:01.317Z,0.90
2023-02-08T16:39:53.295Z,1.20
2023-02-08T16:42:23.454Z,0.80
2023-02-08T16:45:18.343Z,1.10
2023-02-08T16:47:48.566Z,0.80
2023-02-08T16:50:17.239Z,0.80
2023-02-08T16:52:44.389Z,0.70
2023-02-08T16:55:21.340Z,0.50
2023-02-08T16:57:51.367Z,0.70
2023-02-08T17:00:24.809Z,0.50
2023-02-08T17:02:52.507Z,0.70
2023-02-08T17:05:21.608Z,0.80
2023-02-08T17:10:20.942Z,0.60
2023-02-08T17:12:48.144Z,0.50
2023-02-08T17:15:15.112Z,0.70
2023-02-08T17:17:41.970Z,0.50
2023-02-08T17:20:18.108Z,0.50
2023-02-08T17:27:50.677Z,0.00
2023-02-08T17:30:21.266Z,0.30
2023-02-08T17:32:49.584Z,0.20
2023-02-08T17:35:17.046Z,0.40
2023-02-08T17:37:45.093Z,0.50
2023-02-08T17:40:12.514Z,0.20
2023-02-08T17:42:39.955Z,0.70
2023-02-08T17:45:08.755Z,0.50
2023-02-08T17:47:37.674Z,0.20
2023-02-08T17:50:05.381Z,0.40
2023-02-08T17:52:32.120Z,0.30
2023-02-08T17:57:25.912Z,0.00
2023-02-08T17:59:52.688Z,-0.10
2023-02-08T18:02:20.302Z,-0.50
2023-02-08T18:07:14.179Z,0.20
2023-02-08T18:09:40.921Z,0.30
2023-02-08T18:12:08.211Z,0.10
2023-02-08T18:14:37.368Z,0.00
2023-02-08T18:17:04.378Z,-0.20
2023-02-08T18:19:32.618Z,0.10
2023-02-08T18:24:31.838Z,0.60
2023-02-08T18:26:59.929Z,0.00
2023-02-08T18:29:26.917Z,0.20
2023-02-08T18:31:54.152Z,-0.10
2023-02-08T18:34:20.938Z,0.00
2023-02-08T18:36:48.497Z,-0.30
2023-02-08T18:39:22.209Z,-0.20
2023-02-08T18:41:49.876Z,-0.50
2023-02-08T18:44:17.009Z,-0.20
2023-02-08T18:49:14.611Z,-0.50
2023-02-08T18:54:13.160Z,-0.30
2023-02-08T18:56:41.043Z,-0.40
2023-02-08T18:59:08.807Z,-0.30
2023-02-08T19:01:36.629Z,-0.40
2023-02-08T19:04:03.922Z,-0.10
2023-02-08T19:06:31.776Z,-0.30
2023-02-08T19:09:01.031Z,-0.50
2023-02-08T19:11:30.820Z,-0.20
2023-02-08T19:13:59.236Z,-0.60
2023-02-08T19:18:55.622Z,-0.30
2023-02-08T19:21:22.769Z,-0.50
2023-02-08T19:23:51.489Z,-0.50
2023-02-08T19:26:20.732Z,-0.50
2023-02-08T19:28:48.318Z,-0.70
2023-02-08T19:31:17.688Z,-1.10
2023-02-08T19:33:46.360Z,-0.60
2023-02-08T19:36:15.451Z,-0.60
2023-02-08T19:38:42.944Z,-0.60
2023-02-08T19:41:14.574Z,1.10
2023-02-08T19:46:10.220Z,-0.60
2023-02-08T19:51:04.970Z,-0.20
2023-02-08T19:53:32.034Z,-0.70
2023-02-08T19:56:00.419Z,0.90
2023-02-08T19:58:27.585Z,-0.50
2023-02-08T20:00:54.558Z,-1.10
2023-02-08T20:03:22.422Z,-0.80
2023-02-08T20:05:50.128Z,-0.60
2023-02-08T20:08:16.913Z,-1.20
2023-02-08T20:10:45.273Z,-0.80
2023-02-08T20:13:13.055Z,-0.70
2023-02-08T20:15:41.308Z,-0.30
2023-02-08T20:18:09.238Z,-1.00
2023-02-08T20:20:37.035Z,-1.00
2023-02-08T20:28:14.635Z,-0.80
2023-02-08T20:35:36.564Z,-0.80
2023-02-08T20:40:30.940Z,-2.20
2023-02-08T20:42:57.598Z,-0.90
2023-02-08T20:45:24.365Z,-1.20
2023-02-08T20:47:51.072Z,-1.00
2023-02-08T20:50:20.002Z,-0.70
2023-02-08T20:52:48.385Z,-0.90
2023-02-08T20:55:15.312Z,-1.20
2023-02-08T20:57:41.986Z,-0.70
2023-02-08T21:00:10.152Z,-1.00
2023-02-08T21:02:36.977Z,-0.80
2023-02-08T21:05:04.004Z,-1.00
2023-02-08T21:07:30.685Z,-1.00
2023-02-08T21:09:57.997Z,-1.10
2023-02-08T21:12:25.146Z,-1.10
2023-02-08T21:14:51.815Z,-1.10
2023-02-08T21:17:18.533Z,-1.00
2023-02-08T21:24:40.644Z,-1.20
2023-02-08T21:27:07.953Z,-1.30
2023-02-08T21:29:34.581Z,-1.30
2023-02-08T21:34:28.531Z,-1.70
2023-02-08T21:36:55.569Z,-1.00
2023-02-08T21:39:26.578Z,-1.30
2023-02-08T21:41:54.892Z,-1.10
2023-02-08T21:44:22.184Z,-1.20
2023-02-08T21:46:53.776Z,-1.30
2023-02-08T21:49:39.242Z,-1.00
2023-02-08T21:52:25.230Z,-1.10
2023-02-08T21:54:52.877Z,-1.20
2023-02-08T21:57:21.308Z,-1.20
2023-02-08T21:59:52.283Z,-1.10
2023-02-08T22:02:23.493Z,-0.60
2023-02-08T22:04:50.947Z,-1.30
2023-02-08T22:07:17.695Z,-1.10
2023-02-08T22:09:47.348Z,-1.40
2023-02-08T22:12:16.704Z,-1.40
2023-02-08T22:14:51.783Z,-1.50
2023-02-08T22:17:19.423Z,-1.20
2023-02-08T22:19:46.394Z,-1.80
2023-02-08T22:24:40.287Z,-1.50
2023-02-08T22:27:07.217Z,-1.40
2023-02-08T22:29:34.220Z,-1.50
2023-02-08T22:32:01.440Z,-1.40
2023-02-08T22:34:29.314Z,-1.30
2023-02-08T22:36:56.226Z,-1.20
2023-02-08T22:39:23.397Z,-1.20
2023-02-08T22:41:50.287Z,-1.30
2023-02-08T22:44:17.744Z,-1.40
2023-02-08T22:46:44.765Z,-1.20
2023-02-08T22:49:11.814Z,-1.20
2023-02-08T22:51:39.194Z,-2.00
2023-02-08T22:54:06.727Z,-1.40
2023-02-08T22:56:33.842Z,-1.10
2023-02-08T22:59:00.673Z,-1.70
2023-02-08T23:03:55.171Z,-1.50
2023-02-08T23:08:49.939Z,-1.40
2023-02-08T23:13:44.291Z,-1.70
2023-02-08T23:16:12.584Z,-1.70
2023-02-08T23:18:39.512Z,-1.90
2023-02-08T23:23:33.576Z,-1.60
2023-02-08T23:26:04.553Z,-1.40
2023-02-08T23:28:31.728Z,-1.60
2023-02-08T23:30:59.205Z,-1.70
2023-02-08T23:33:26.331Z,-1.00
2023-02-08T23:35:53.049Z,-1.60
2023-02-08T23:38:19.759Z,-1.60
2023-02-08T23:40:47.031Z,-1.50
2023-02-08T23:43:14.655Z,-1.90
2023-02-08T23:45:44.230Z,-1.50
2023-02-08T23:48:10.895Z,-1.80
2023-02-08T23:50:37.884Z,-2.20
2023-02-08T23:53:04.679Z,-1.70
2023-02-08T23:55:31.392Z,-1.60
2023-02-08T23:57:58.134Z,-1.50
